<?xml version='1.0' encoding='UTF-8'?>
<gpx xmlns="http://www.topografix.com/GPX/1/1" creator="www.balnam.be" version="1.1" xmlns:xsi="http://www.w3.org/2001/XMLSchema-instance" xsi:schemaLocation="http://www.topografix.com/GPX/1/1 http://www.topografix.com/GPX/1/1/gpx.xsd">
<trk>
<name>nonan26</name>
<cmt>r</cmt>
<desc>Anthée Chemin n°26 Rue Tavienne / ? / Rue Sous-lieutenant Pierard</desc>
<link href="https://chemins.be/anthee/chemin/26"/><trkseg>
<trkpt lat="50.230521" lon="4.741897"><time>2026-05-02T22:08:21Z</time></trkpt>
<trkpt lat="50.229317" lon="4.741579"><time>2026-05-02T22:18:21Z</time></trkpt>
</trkseg></trk>
<trk>
<name>nonan26</name>
<cmt>v</cmt>
<desc>Anthée Chemin n°26 Rue Tavienne / ? / Rue Sous-lieutenant Pierard</desc>
<link href="https://chemins.be/anthee/chemin/26"/><trkseg>
<trkpt lat="50.229317" lon="4.741579"><time>2026-05-02T22:18:21Z</time></trkpt>
<trkpt lat="50.227762" lon="4.741525"><time>2026-05-02T22:28:21Z</time></trkpt>
<trkpt lat="50.227341" lon="4.741115"><time>2026-05-02T22:38:21Z</time></trkpt>
<trkpt lat="50.226567" lon="4.741249"><time>2026-05-02T22:48:21Z</time></trkpt>
<trkpt lat="50.225928" lon="4.741693"><time>2026-05-02T22:58:21Z</time></trkpt>
<trkpt lat="50.225765" lon="4.742070"><time>2026-05-02T23:08:21Z</time></trkpt>
<trkpt lat="50.224744" lon="4.743337"><time>2026-05-02T23:18:21Z</time></trkpt>
<trkpt lat="50.223914" lon="4.744508"><time>2026-05-02T23:28:21Z</time></trkpt>
<trkpt lat="50.223012" lon="4.748046"><time>2026-05-02T23:38:21Z</time></trkpt>
<trkpt lat="50.222596" lon="4.748603"><time>2026-05-02T23:48:21Z</time></trkpt>
<trkpt lat="50.222078" lon="4.750393"><time>2026-05-02T23:58:21Z</time></trkpt>
<trkpt lat="50.222233" lon="4.752552"><time>2026-05-03T00:08:21Z</time></trkpt>
<trkpt lat="50.222520" lon="4.755329"><time>2026-05-03T00:18:21Z</time></trkpt>
<trkpt lat="50.222644" lon="4.757686"><time>2026-05-03T00:28:21Z</time></trkpt>
<trkpt lat="50.223404" lon="4.759919"><time>2026-05-03T00:38:21Z</time></trkpt>
<trkpt lat="50.223495" lon="4.762344"><time>2026-05-03T00:48:21Z</time></trkpt>
<trkpt lat="50.224161" lon="4.767335"><time>2026-05-03T00:58:21Z</time></trkpt>
<trkpt lat="50.224506" lon="4.768995"><time>2026-05-03T01:08:21Z</time></trkpt>
<trkpt lat="50.225840" lon="4.770255"><time>2026-05-03T01:18:21Z</time></trkpt>
<trkpt lat="50.226308" lon="4.771092"><time>2026-05-03T01:28:21Z</time></trkpt>
</trkseg></trk>
<trk>
<name>nonan26</name>
<cmt>r</cmt>
<desc>Anthée Chemin n°26 Rue Tavienne / ? / Rue Sous-lieutenant Pierard</desc>
<link href="https://chemins.be/anthee/chemin/26"/><trkseg>
<trkpt lat="50.226308" lon="4.771092"><time>2026-05-03T01:28:21Z</time></trkpt>
<trkpt lat="50.227066" lon="4.772372"><time>2026-05-03T01:38:21Z</time></trkpt>
<trkpt lat="50.228201" lon="4.773746"><time>2026-05-03T01:48:21Z</time></trkpt>
<trkpt lat="50.228979" lon="4.774404"><time>2026-05-03T01:58:21Z</time></trkpt>
</trkseg>
</trk>
</gpx>